sensor_id;sensor_type;location;lat;lon;timestamp;P1;durP1;ratioP1;P2;durP2;ratioP2
42714;SDS011;28351;51.480;5.706;2023-04-12T00:02:06;2.97;;;1.38;;
42714;SDS011;28351;51.480;5.706;2023-04-12T00:04:32;3.35;;;1.50;;
42714;SDS011;28351;51.480;5.706;2023-04-12T00:06:59;5.13;;;1.27;;
42714;SDS011;28351;51.480;5.706;2023-04-12T00:09:26;4.00;;;1.30;;
42714;SDS011;28351;51.480;5.706;2023-04-12T00:11:55;5.32;;;1.40;;
42714;SDS011;28351;51.480;5.706;2023-04-12T00:14:25;3.78;;;1.33;;
42714;SDS011;28351;51.480;5.706;2023-04-12T00:16:51;3.38;;;1.88;;
42714;SDS011;28351;51.480;5.706;2023-04-12T00:19:16;4.78;;;1.23;;
42714;SDS011;28351;51.480;5.706;2023-04-12T00:21:42;2.65;;;1.13;;
42714;SDS011;28351;51.480;5.706;2023-04-12T00:24:08;3.92;;;1.23;;
42714;SDS011;28351;51.480;5.706;2023-04-12T00:26:34;3.35;;;1.20;;
42714;SDS011;28351;51.480;5.706;2023-04-12T00:29:00;5.15;;;1.60;;
42714;SDS011;28351;51.480;5.706;2023-04-12T00:31:26;6.40;;;1.73;;
42714;SDS011;28351;51.480;5.706;2023-04-12T00:33:52;4.70;;;1.17;;
42714;SDS011;28351;51.480;5.706;2023-04-12T00:36:17;6.18;;;1.08;;
42714;SDS011;28351;51.480;5.706;2023-04-12T00:38:43;3.10;;;1.10;;
42714;SDS011;28351;51.480;5.706;2023-04-12T00:41:14;2.60;;;1.15;;
42714;SDS011;28351;51.480;5.706;2023-04-12T00:43:41;4.80;;;1.20;;
42714;SDS011;28351;51.480;5.706;2023-04-12T00:46:07;5.57;;;1.55;;
42714;SDS011;28351;51.480;5.706;2023-04-12T00:48:33;2.85;;;1.20;;
42714;SDS011;28351;51.480;5.706;2023-04-12T00:50:59;1.63;;;1.10;;
42714;SDS011;28351;51.480;5.706;2023-04-12T00:53:25;7.32;;;1.23;;
42714;SDS011;28351;51.480;5.706;2023-04-12T00:55:52;5.13;;;1.30;;
42714;SDS011;28351;51.480;5.706;2023-04-12T00:58:23;2.70;;;1.20;;
42714;SDS011;28351;51.480;5.706;2023-04-12T01:00:49;4.13;;;1.30;;
42714;SDS011;28351;51.480;5.706;2023-04-12T01:03:16;3.23;;;1.37;;
42714;SDS011;28351;51.480;5.706;2023-04-12T01:11:22;4.68;;;1.70;;
42714;SDS011;28351;51.480;5.706;2023-04-12T01:13:58;9.00;;;1.60;;
42714;SDS011;28351;51.480;5.706;2023-04-12T01:16:47;2.90;;;1.20;;
42714;SDS011;28351;51.480;5.706;2023-04-12T01:19:36;4.18;;;1.70;;
42714;SDS011;28351;51.480;5.706;2023-04-12T01:22:28;2.00;;;1.30;;
42714;SDS011;28351;51.480;5.706;2023-04-12T01:25:30;9.35;;;1.60;;
42714;SDS011;28351;51.480;5.706;2023-04-12T01:28:16;3.30;;;1.60;;
42714;SDS011;28351;51.480;5.706;2023-04-12T01:30:51;6.43;;;1.20;;
42714;SDS011;28351;51.480;5.706;2023-04-12T01:33:17;3.20;;;1.20;;
42714;SDS011;28351;51.480;5.706;2023-04-12T01:35:44;3.25;;;1.15;;
42714;SDS011;28351;51.480;5.706;2023-04-12T01:38:12;3.38;;;1.08;;
42714;SDS011;28351;51.480;5.706;2023-04-12T01:40:41;5.15;;;1.17;;
42714;SDS011;28351;51.480;5.706;2023-04-12T01:43:07;6.00;;;1.20;;
42714;SDS011;28351;51.480;5.706;2023-04-12T01:48:01;3.60;;;1.10;;
42714;SDS011;28351;51.480;5.706;2023-04-12T01:55:44;6.43;;;1.27;;
42714;SDS011;28351;51.480;5.706;2023-04-12T01:58:19;1.25;;;1.02;;
42714;SDS011;28351;51.480;5.706;2023-04-12T02:00:46;2.17;;;1.10;;
42714;SDS011;28351;51.480;5.706;2023-04-12T02:03:13;4.78;;;1.50;;
42714;SDS011;28351;51.480;5.706;2023-04-12T02:05:45;5.43;;;1.38;;
42714;SDS011;28351;51.480;5.706;2023-04-12T02:08:11;5.15;;;1.23;;
42714;SDS011;28351;51.480;5.706;2023-04-12T02:10:37;3.92;;;1.02;;
42714;SDS011;28351;51.480;5.706;2023-04-12T02:13:04;4.78;;;1.27;;
42714;SDS011;28351;51.480;5.706;2023-04-12T02:15:30;4.65;;;1.05;;
42714;SDS011;28351;51.480;5.706;2023-04-12T02:17:56;6.28;;;1.30;;
42714;SDS011;28351;51.480;5.706;2023-04-12T02:20:23;3.15;;;1.20;;
42714;SDS011;28351;51.480;5.706;2023-04-12T02:22:49;7.78;;;1.70;;
42714;SDS011;28351;51.480;5.706;2023-04-12T02:25:15;2.28;;;1.02;;
42714;SDS011;28351;51.480;5.706;2023-04-12T02:27:42;5.93;;;0.93;;
42714;SDS011;28351;51.480;5.706;2023-04-12T02:30:09;2.67;;;1.10;;
42714;SDS011;28351;51.480;5.706;2023-04-12T02:32:35;3.10;;;1.20;;
42714;SDS011;28351;51.480;5.706;2023-04-12T02:35:11;2.85;;;1.10;;
42714;SDS011;28351;51.480;5.706;2023-04-12T02:37:38;7.95;;;1.10;;
42714;SDS011;28351;51.480;5.706;2023-04-12T02:40:04;3.22;;;0.98;;
42714;SDS011;28351;51.480;5.706;2023-04-12T02:42:31;2.67;;;1.15;;
42714;SDS011;28351;51.480;5.706;2023-04-12T02:44:57;1.80;;;0.85;;
42714;SDS011;28351;51.480;5.706;2023-04-12T02:47:23;2.25;;;1.05;;
42714;SDS011;28351;51.480;5.706;2023-04-12T02:49:52;5.28;;;0.90;;
42714;SDS011;28351;51.480;5.706;2023-04-12T02:52:18;3.50;;;1.02;;
42714;SDS011;28351;51.480;5.706;2023-04-12T02:54:43;5.25;;;1.30;;
42714;SDS011;28351;51.480;5.706;2023-04-12T02:57:13;2.25;;;1.00;;
42714;SDS011;28351;51.480;5.706;2023-04-12T02:59:40;3.25;;;1.23;;
42714;SDS011;28351;51.480;5.706;2023-04-12T03:02:05;3.20;;;1.27;;
42714;SDS011;28351;51.480;5.706;2023-04-12T03:04:31;2.72;;;0.82;;
42714;SDS011;28351;51.480;5.706;2023-04-12T03:06:57;1.90;;;1.00;;
42714;SDS011;28351;51.480;5.706;2023-04-12T03:09:23;1.77;;;1.00;;
42714;SDS011;28351;51.480;5.706;2023-04-12T03:11:49;1.52;;;1.30;;
42714;SDS011;28351;51.480;5.706;2023-04-12T03:14:15;1.30;;;1.00;;
42714;SDS011;28351;51.480;5.706;2023-04-12T03:16:41;4.25;;;1.15;;
42714;SDS011;28351;51.480;5.706;2023-04-12T03:19:09;2.42;;;1.02;;
42714;SDS011;28351;51.480;5.706;2023-04-12T03:21:35;6.78;;;1.15;;
42714;SDS011;28351;51.480;5.706;2023-04-12T03:24:01;1.90;;;1.05;;
42714;SDS011;28351;51.480;5.706;2023-04-12T03:26:28;5.93;;;1.10;;
42714;SDS011;28351;51.480;5.706;2023-04-12T03:31:28;4.53;;;1.10;;
42714;SDS011;28351;51.480;5.706;2023-04-12T03:33:55;2.90;;;1.30;;
42714;SDS011;28351;51.480;5.706;2023-04-12T03:36:23;1.48;;;1.00;;
42714;SDS011;28351;51.480;5.706;2023-04-12T03:38:51;3.17;;;1.10;;
42714;SDS011;28351;51.480;5.706;2023-04-12T03:41:16;2.05;;;0.95;;
42714;SDS011;28351;51.480;5.706;2023-04-12T03:43:42;1.58;;;1.15;;
42714;SDS011;28351;51.480;5.706;2023-04-12T03:46:08;1.70;;;0.80;;
42714;SDS011;28351;51.480;5.706;2023-04-12T03:48:33;2.72;;;0.85;;
42714;SDS011;28351;51.480;5.706;2023-04-12T03:51:00;5.43;;;1.30;;
42714;SDS011;28351;51.480;5.706;2023-04-12T03:53:32;5.13;;;0.93;;
42714;SDS011;28351;51.480;5.706;2023-04-12T03:56:01;3.10;;;1.10;;
42714;SDS011;28351;51.480;5.706;2023-04-12T03:58:29;2.72;;;0.85;;
42714;SDS011;28351;51.480;5.706;2023-04-12T04:00:57;1.52;;;1.02;;
42714;SDS011;28351;51.480;5.706;2023-04-12T04:03:29;3.30;;;0.93;;
42714;SDS011;28351;51.480;5.706;2023-04-12T04:06:01;3.17;;;1.17;;
42714;SDS011;28351;51.480;5.706;2023-04-12T04:08:28;1.20;;;0.85;;
42714;SDS011;28351;51.480;5.706;2023-04-12T04:10:55;1.52;;;1.25;;
42714;SDS011;28351;51.480;5.706;2023-04-12T04:13:24;1.02;;;0.82;;
42714;SDS011;28351;51.480;5.706;2023-04-12T04:15:54;3.53;;;1.20;;
42714;SDS011;28351;51.480;5.706;2023-04-12T04:18:23;2.80;;;0.93;;
42714;SDS011;28351;51.480;5.706;2023-04-12T04:20:49;4.88;;;1.10;;
42714;SDS011;28351;51.480;5.706;2023-04-12T04:23:14;4.80;;;0.90;;
42714;SDS011;28351;51.480;5.706;2023-04-12T04:25:41;1.02;;;0.82;;
42714;SDS011;28351;51.480;5.706;2023-04-12T04:28:07;2.38;;;1.00;;
42714;SDS011;28351;51.480;5.706;2023-04-12T04:30:33;5.70;;;1.48;;
42714;SDS011;28351;51.480;5.706;2023-04-12T04:33:03;2.38;;;0.90;;
42714;SDS011;28351;51.480;5.706;2023-04-12T04:35:29;4.30;;;1.25;;
42714;SDS011;28351;51.480;5.706;2023-04-12T04:37:55;1.88;;;1.05;;
42714;SDS011;28351;51.480;5.706;2023-04-12T04:40:21;3.92;;;1.42;;
42714;SDS011;28351;51.480;5.706;2023-04-12T04:42:48;2.30;;;1.20;;
42714;SDS011;28351;51.480;5.706;2023-04-12T04:45:21;2.75;;;1.20;;
42714;SDS011;28351;51.480;5.706;2023-04-12T04:47:51;4.60;;;1.50;;
42714;SDS011;28351;51.480;5.706;2023-04-12T04:50:20;3.17;;;1.25;;
42714;SDS011;28351;51.480;5.706;2023-04-12T04:52:46;2.67;;;1.10;;
42714;SDS011;28351;51.480;5.706;2023-04-12T04:55:13;4.10;;;1.23;;
42714;SDS011;28351;51.480;5.706;2023-04-12T04:57:39;5.85;;;1.60;;
42714;SDS011;28351;51.480;5.706;2023-04-12T05:00:08;2.50;;;1.27;;
42714;SDS011;28351;51.480;5.706;2023-04-12T05:02:38;4.03;;;1.35;;
42714;SDS011;28351;51.480;5.706;2023-04-12T05:07:37;1.77;;;1.10;;
42714;SDS011;28351;51.480;5.706;2023-04-12T05:10:03;4.65;;;1.55;;
42714;SDS011;28351;51.480;5.706;2023-04-12T05:12:29;2.97;;;1.30;;
42714;SDS011;28351;51.480;5.706;2023-04-12T05:14:55;1.17;;;1.00;;
42714;SDS011;28351;51.480;5.706;2023-04-12T05:17:21;1.98;;;1.27;;
42714;SDS011;28351;51.480;5.706;2023-04-12T05:19:46;2.45;;;1.20;;
42714;SDS011;28351;51.480;5.706;2023-04-12T05:22:12;4.05;;;1.30;;
42714;SDS011;28351;51.480;5.706;2023-04-12T05:24:38;2.85;;;1.30;;
42714;SDS011;28351;51.480;5.706;2023-04-12T05:27:04;2.88;;;1.38;;
42714;SDS011;28351;51.480;5.706;2023-04-12T05:29:30;3.33;;;1.48;;
42714;SDS011;28351;51.480;5.706;2023-04-12T05:31:57;1.90;;;1.23;;
42714;SDS011;28351;51.480;5.706;2023-04-12T05:34:23;2.78;;;1.50;;
42714;SDS011;28351;51.480;5.706;2023-04-12T05:36:48;3.97;;;1.60;;
42714;SDS011;28351;51.480;5.706;2023-04-12T05:39:14;2.17;;;1.40;;
42714;SDS011;28351;51.480;5.706;2023-04-12T05:41:40;2.00;;;1.35;;
42714;SDS011;28351;51.480;5.706;2023-04-12T05:44:05;5.60;;;1.95;;
42714;SDS011;28351;51.480;5.706;2023-04-12T05:46:31;4.15;;;1.65;;
42714;SDS011;28351;51.480;5.706;2023-04-12T05:48:57;2.35;;;1.65;;
42714;SDS011;28351;51.480;5.706;2023-04-12T05:51:23;2.00;;;1.35;;
42714;SDS011;28351;51.480;5.706;2023-04-12T05:53:48;5.20;;;1.70;;
42714;SDS011;28351;51.480;5.706;2023-04-12T05:56:17;2.22;;;1.25;;
42714;SDS011;28351;51.480;5.706;2023-04-12T05:58:43;2.10;;;1.38;;
42714;SDS011;28351;51.480;5.706;2023-04-12T06:01:08;2.95;;;1.58;;
42714;SDS011;28351;51.480;5.706;2023-04-12T06:03:34;2.03;;;1.58;;
42714;SDS011;28351;51.480;5.706;2023-04-12T06:06:01;4.95;;;1.52;;
42714;SDS011;28351;51.480;5.706;2023-04-12T06:08:30;6.45;;;1.60;;
42714;SDS011;28351;51.480;5.706;2023-04-12T06:10:56;2.67;;;1.42;;
42714;SDS011;28351;51.480;5.706;2023-04-12T06:13:21;3.05;;;1.35;;
42714;SDS011;28351;51.480;5.706;2023-04-12T06:15:47;2.25;;;1.50;;
42714;SDS011;28351;51.480;5.706;2023-04-12T06:18:12;8.30;;;1.80;;
42714;SDS011;28351;51.480;5.706;2023-04-12T06:20:39;3.58;;;1.70;;
42714;SDS011;28351;51.480;5.706;2023-04-12T06:23:05;4.97;;;1.80;;
42714;SDS011;28351;51.480;5.706;2023-04-12T06:25:31;2.45;;;1.52;;
42714;SDS011;28351;51.480;5.706;2023-04-12T06:27:57;4.15;;;1.80;;
42714;SDS011;28351;51.480;5.706;2023-04-12T06:30:23;3.45;;;1.58;;
42714;SDS011;28351;51.480;5.706;2023-04-12T06:32:49;3.22;;;1.60;;
42714;SDS011;28351;51.480;5.706;2023-04-12T06:35:14;2.58;;;1.45;;
42714;SDS011;28351;51.480;5.706;2023-04-12T06:37:41;2.58;;;1.42;;
42714;SDS011;28351;51.480;5.706;2023-04-12T06:40:06;2.75;;;1.60;;
42714;SDS011;28351;51.480;5.706;2023-04-12T06:42:34;3.75;;;1.63;;
42714;SDS011;28351;51.480;5.706;2023-04-12T06:45:00;2.42;;;1.50;;
42714;SDS011;28351;51.480;5.706;2023-04-12T06:47:28;3.92;;;1.95;;
42714;SDS011;28351;51.480;5.706;2023-04-12T06:49:56;2.53;;;1.67;;
42714;SDS011;28351;51.480;5.706;2023-04-12T06:52:22;2.85;;;1.63;;
42714;SDS011;28351;51.480;5.706;2023-04-12T06:54:49;6.63;;;2.30;;
42714;SDS011;28351;51.480;5.706;2023-04-12T06:57:15;3.55;;;1.83;;
42714;SDS011;28351;51.480;5.706;2023-04-12T06:59:41;4.18;;;2.13;;
42714;SDS011;28351;51.480;5.706;2023-04-12T07:02:06;4.50;;;1.88;;
42714;SDS011;28351;51.480;5.706;2023-04-12T07:04:32;2.58;;;1.85;;
42714;SDS011;28351;51.480;5.706;2023-04-12T07:06:58;2.72;;;1.90;;
42714;SDS011;28351;51.480;5.706;2023-04-12T07:09:23;3.53;;;2.22;;
42714;SDS011;28351;51.480;5.706;2023-04-12T07:11:49;3.88;;;1.98;;
42714;SDS011;28351;51.480;5.706;2023-04-12T07:14:17;2.83;;;1.60;;
42714;SDS011;28351;51.480;5.706;2023-04-12T07:16:43;2.47;;;1.80;;
42714;SDS011;28351;51.480;5.706;2023-04-12T07:19:09;2.25;;;1.90;;
42714;SDS011;28351;51.480;5.706;2023-04-12T07:21:34;5.32;;;2.10;;
42714;SDS011;28351;51.480;5.706;2023-04-12T07:24:00;7.13;;;2.45;;
42714;SDS011;28351;51.480;5.706;2023-04-12T07:26:25;3.95;;;1.92;;
42714;SDS011;28351;51.480;5.706;2023-04-12T07:28:52;1.65;;;1.40;;
42714;SDS011;28351;51.480;5.706;2023-04-12T07:31:18;2.15;;;1.70;;
42714;SDS011;28351;51.480;5.706;2023-04-12T07:33:47;2.72;;;1.80;;
42714;SDS011;28351;51.480;5.706;2023-04-12T07:36:13;3.95;;;2.13;;
42714;SDS011;28351;51.480;5.706;2023-04-12T07:38:45;2.33;;;1.58;;
42714;SDS011;28351;51.480;5.706;2023-04-12T07:41:10;2.67;;;1.70;;
42714;SDS011;28351;51.480;5.706;2023-04-12T07:43:36;2.22;;;1.85;;
42714;SDS011;28351;51.480;5.706;2023-04-12T07:46:01;5.60;;;2.38;;
42714;SDS011;28351;51.480;5.706;2023-04-12T07:48:31;3.03;;;2.13;;
42714;SDS011;28351;51.480;5.706;2023-04-12T07:50:57;6.10;;;2.50;;
42714;SDS011;28351;51.480;5.706;2023-04-12T07:53:24;5.20;;;2.10;;
42714;SDS011;28351;51.480;5.706;2023-04-12T07:55:51;4.00;;;1.95;;
42714;SDS011;28351;51.480;5.706;2023-04-12T07:58:18;4.45;;;2.08;;
42714;SDS011;28351;51.480;5.706;2023-04-12T08:00:45;5.75;;;2.30;;
42714;SDS011;28351;51.480;5.706;2023-04-12T08:03:11;3.97;;;2.13;;
42714;SDS011;28351;51.480;5.706;2023-04-12T08:05:38;4.15;;;2.45;;
42714;SDS011;28351;51.480;5.706;2023-04-12T08:08:04;7.47;;;3.00;;
42714;SDS011;28351;51.480;5.706;2023-04-12T08:10:34;3.63;;;2.10;;
42714;SDS011;28351;51.480;5.706;2023-04-12T08:13:01;5.00;;;2.50;;
42714;SDS011;28351;51.480;5.706;2023-04-12T08:15:27;2.55;;;2.28;;
42714;SDS011;28351;51.480;5.706;2023-04-12T08:17:53;6.88;;;2.65;;
42714;SDS011;28351;51.480;5.706;2023-04-12T08:20:19;7.13;;;2.60;;
42714;SDS011;28351;51.480;5.706;2023-04-12T08:22:45;4.68;;;2.58;;
42714;SDS011;28351;51.480;5.706;2023-04-12T08:25:11;5.97;;;2.88;;
42714;SDS011;28351;51.480;5.706;2023-04-12T08:27:38;6.40;;;2.33;;
42714;SDS011;28351;51.480;5.706;2023-04-12T08:30:09;8.32;;;3.05;;
42714;SDS011;28351;51.480;5.706;2023-04-12T08:32:35;7.80;;;2.90;;
42714;SDS011;28351;51.480;5.706;2023-04-12T08:35:04;7.57;;;2.67;;
42714;SDS011;28351;51.480;5.706;2023-04-12T08:37:30;9.07;;;3.05;;
42714;SDS011;28351;51.480;5.706;2023-04-12T08:39:57;12.98;;;3.03;;
42714;SDS011;28351;51.480;5.706;2023-04-12T08:44:50;6.57;;;2.83;;
42714;SDS011;28351;51.480;5.706;2023-04-12T08:47:18;6.10;;;2.30;;
42714;SDS011;28351;51.480;5.706;2023-04-12T08:49:45;7.63;;;2.58;;
42714;SDS011;28351;51.480;5.706;2023-04-12T08:52:12;3.97;;;2.15;;
42714;SDS011;28351;51.480;5.706;2023-04-12T08:54:37;7.53;;;2.15;;
42714;SDS011;28351;51.480;5.706;2023-04-12T08:57:04;6.75;;;2.13;;
42714;SDS011;28351;51.480;5.706;2023-04-12T08:59:31;7.63;;;2.33;;
42714;SDS011;28351;51.480;5.706;2023-04-12T09:02:00;4.88;;;2.22;;
42714;SDS011;28351;51.480;5.706;2023-04-12T09:04:29;8.85;;;2.47;;
42714;SDS011;28351;51.480;5.706;2023-04-12T09:06:55;7.35;;;2.35;;
42714;SDS011;28351;51.480;5.706;2023-04-12T09:14:38;9.20;;;2.60;;
42714;SDS011;28351;51.480;5.706;2023-04-12T09:17:23;7.35;;;2.53;;
42714;SDS011;28351;51.480;5.706;2023-04-12T09:19:52;6.57;;;2.40;;
42714;SDS011;28351;51.480;5.706;2023-04-12T09:22:31;6.78;;;2.22;;
42714;SDS011;28351;51.480;5.706;2023-04-12T09:25:12;8.48;;;2.35;;
42714;SDS011;28351;51.480;5.706;2023-04-12T09:27:48;3.30;;;2.42;;
42714;SDS011;28351;51.480;5.706;2023-04-12T09:30:22;4.35;;;2.33;;
42714;SDS011;28351;51.480;5.706;2023-04-12T09:32:48;4.25;;;2.13;;
42714;SDS011;28351;51.480;5.706;2023-04-12T09:35:13;7.43;;;2.28;;
42714;SDS011;28351;51.480;5.706;2023-04-12T09:37:39;9.32;;;3.15;;
42714;SDS011;28351;51.480;5.706;2023-04-12T09:40:06;9.68;;;3.25;;
42714;SDS011;28351;51.480;5.706;2023-04-12T09:42:33;6.47;;;3.10;;
42714;SDS011;28351;51.480;5.706;2023-04-12T09:45:19;8.77;;;2.78;;
42714;SDS011;28351;51.480;5.706;2023-04-12T09:47:52;6.03;;;2.97;;
42714;SDS011;28351;51.480;5.706;2023-04-12T09:50:19;7.38;;;3.05;;
42714;SDS011;28351;51.480;5.706;2023-04-12T09:52:50;8.95;;;3.53;;
42714;SDS011;28351;51.480;5.706;2023-04-12T09:55:26;9.18;;;2.92;;
42714;SDS011;28351;51.480;5.706;2023-04-12T09:57:55;8.88;;;2.60;;
42714;SDS011;28351;51.480;5.706;2023-04-12T10:00:25;7.22;;;3.00;;
42714;SDS011;28351;51.480;5.706;2023-04-12T10:02:52;12.88;;;3.25;;
42714;SDS011;28351;51.480;5.706;2023-04-12T10:05:20;10.65;;;2.83;;
42714;SDS011;28351;51.480;5.706;2023-04-12T10:07:47;7.55;;;2.78;;
42714;SDS011;28351;51.480;5.706;2023-04-12T10:10:13;7.47;;;3.17;;
42714;SDS011;28351;51.480;5.706;2023-04-12T10:12:42;8.55;;;3.22;;
42714;SDS011;28351;51.480;5.706;2023-04-12T10:15:09;13.88;;;3.70;;
42714;SDS011;28351;51.480;5.706;2023-04-12T10:17:44;12.55;;;3.80;;
42714;SDS011;28351;51.480;5.706;2023-04-12T10:20:13;15.93;;;4.15;;
42714;SDS011;28351;51.480;5.706;2023-04-12T10:22:40;13.60;;;3.58;;
42714;SDS011;28351;51.480;5.706;2023-04-12T10:25:11;13.18;;;3.60;;
42714;SDS011;28351;51.480;5.706;2023-04-12T10:27:39;9.95;;;3.50;;
42714;SDS011;28351;51.480;5.706;2023-04-12T10:30:39;11.85;;;4.05;;
42714;SDS011;28351;51.480;5.706;2023-04-12T10:35:27;9.68;;;3.55;;
42714;SDS011;28351;51.480;5.706;2023-04-12T10:37:59;9.93;;;2.95;;
42714;SDS011;28351;51.480;5.706;2023-04-12T10:40:32;16.55;;;3.70;;
42714;SDS011;28351;51.480;5.706;2023-04-12T10:43:40;9.10;;;3.35;;
42714;SDS011;28351;51.480;5.706;2023-04-12T10:45:46;17.85;;;4.00;;
42714;SDS011;28351;51.480;5.706;2023-04-12T10:53:49;11.85;;;4.05;;
42714;SDS011;28351;51.480;5.706;2023-04-12T10:58:57;11.00;;;4.88;;
42714;SDS011;28351;51.480;5.706;2023-04-12T11:01:24;14.02;;;4.40;;
42714;SDS011;28351;51.480;5.706;2023-04-12T11:06:47;13.13;;;3.33;;
42714;SDS011;28351;51.480;5.706;2023-04-12T11:09:58;10.80;;;2.40;;
42714;SDS011;28351;51.480;5.706;2023-04-12T11:12:11;12.85;;;3.28;;
42714;SDS011;28351;51.480;5.706;2023-04-12T11:14:52;9.27;;;2.78;;
42714;SDS011;28351;51.480;5.706;2023-04-12T11:17:25;11.20;;;3.17;;
42714;SDS011;28351;51.480;5.706;2023-04-12T11:19:58;16.75;;;3.20;;
42714;SDS011;28351;51.480;5.706;2023-04-12T11:22:28;12.45;;;2.88;;
42714;SDS011;28351;51.480;5.706;2023-04-12T11:24:56;8.82;;;2.75;;
42714;SDS011;28351;51.480;5.706;2023-04-12T11:27:23;9.03;;;3.33;;
42714;SDS011;28351;51.480;5.706;2023-04-12T11:30:02;12.38;;;3.08;;
42714;SDS011;28351;51.480;5.706;2023-04-12T11:32:28;11.55;;;3.72;;
42714;SDS011;28351;51.480;5.706;2023-04-12T11:34:55;14.77;;;4.22;;
42714;SDS011;28351;51.480;5.706;2023-04-12T11:37:22;12.02;;;3.88;;
42714;SDS011;28351;51.480;5.706;2023-04-12T11:39:51;11.63;;;4.28;;
42714;SDS011;28351;51.480;5.706;2023-04-12T11:42:21;12.20;;;3.78;;
42714;SDS011;28351;51.480;5.706;2023-04-12T11:44:47;12.13;;;4.60;;
42714;SDS011;28351;51.480;5.706;2023-04-12T11:47:14;14.00;;;4.18;;
42714;SDS011;28351;51.480;5.706;2023-04-12T11:49:51;12.30;;;4.53;;
42714;SDS011;28351;51.480;5.706;2023-04-12T11:52:28;14.50;;;4.45;;
42714;SDS011;28351;51.480;5.706;2023-04-12T11:54:55;12.35;;;5.25;;
42714;SDS011;28351;51.480;5.706;2023-04-12T11:57:25;11.50;;;4.60;;
42714;SDS011;28351;51.480;5.706;2023-04-12T11:59:55;18.48;;;4.80;;
42714;SDS011;28351;51.480;5.706;2023-04-12T12:02:21;7.32;;;4.05;;
42714;SDS011;28351;51.480;5.706;2023-04-12T12:04:47;13.98;;;3.53;;
42714;SDS011;28351;51.480;5.706;2023-04-12T12:07:14;12.25;;;4.55;;
42714;SDS011;28351;51.480;5.706;2023-04-12T12:09:41;9.25;;;3.40;;
42714;SDS011;28351;51.480;5.706;2023-04-12T12:12:09;11.23;;;3.75;;
42714;SDS011;28351;51.480;5.706;2023-04-12T12:14:39;11.23;;;3.70;;
42714;SDS011;28351;51.480;5.706;2023-04-12T12:17:13;9.98;;;2.95;;
42714;SDS011;28351;51.480;5.706;2023-04-12T12:19:41;7.03;;;3.20;;
42714;SDS011;28351;51.480;5.706;2023-04-12T12:22:14;5.90;;;2.80;;
42714;SDS011;28351;51.480;5.706;2023-04-12T12:24:51;7.90;;;2.90;;
42714;SDS011;28351;51.480;5.706;2023-04-12T12:27:21;9.48;;;2.67;;
42714;SDS011;28351;51.480;5.706;2023-04-12T12:29:58;8.23;;;2.42;;
42714;SDS011;28351;51.480;5.706;2023-04-12T12:32:25;11.25;;;2.80;;
42714;SDS011;28351;51.480;5.706;2023-04-12T12:34:58;9.63;;;2.80;;
42714;SDS011;28351;51.480;5.706;2023-04-12T12:37:25;6.65;;;2.85;;
42714;SDS011;28351;51.480;5.706;2023-04-12T12:42:44;7.75;;;2.60;;
42714;SDS011;28351;51.480;5.706;2023-04-12T12:45:11;8.65;;;2.30;;
42714;SDS011;28351;51.480;5.706;2023-04-12T12:50:17;10.43;;;2.97;;
42714;SDS011;28351;51.480;5.706;2023-04-12T12:52:44;5.25;;;2.22;;
42714;SDS011;28351;51.480;5.706;2023-04-12T12:55:11;5.15;;;2.03;;
42714;SDS011;28351;51.480;5.706;2023-04-12T12:57:41;8.65;;;3.13;;
42714;SDS011;28351;51.480;5.706;2023-04-12T13:00:07;7.90;;;3.00;;
42714;SDS011;28351;51.480;5.706;2023-04-12T13:02:34;13.13;;;2.95;;
42714;SDS011;28351;51.480;5.706;2023-04-12T13:05:06;17.08;;;2.90;;
42714;SDS011;28351;51.480;5.706;2023-04-12T13:07:32;9.63;;;2.30;;
42714;SDS011;28351;51.480;5.706;2023-04-12T13:10:08;7.03;;;2.20;;
42714;SDS011;28351;51.480;5.706;2023-04-12T13:12:34;10.80;;;1.95;;
42714;SDS011;28351;51.480;5.706;2023-04-12T13:15:00;6.13;;;1.80;;
42714;SDS011;28351;51.480;5.706;2023-04-12T13:17:26;7.07;;;2.15;;
42714;SDS011;28351;51.480;5.706;2023-04-12T13:19:53;9.50;;;1.88;;
42714;SDS011;28351;51.480;5.706;2023-04-12T13:22:18;5.95;;;1.60;;
42714;SDS011;28351;51.480;5.706;2023-04-12T13:24:44;5.80;;;1.65;;
42714;SDS011;28351;51.480;5.706;2023-04-12T13:27:11;6.22;;;2.03;;
42714;SDS011;28351;51.480;5.706;2023-04-12T13:29:37;7.50;;;1.88;;
42714;SDS011;28351;51.480;5.706;2023-04-12T13:32:03;7.22;;;2.40;;
42714;SDS011;28351;51.480;5.706;2023-04-12T13:34:29;7.43;;;2.08;;
42714;SDS011;28351;51.480;5.706;2023-04-12T13:36:56;6.65;;;1.98;;
42714;SDS011;28351;51.480;5.706;2023-04-12T13:39:22;9.75;;;2.53;;
42714;SDS011;28351;51.480;5.706;2023-04-12T13:42:21;8.50;;;2.80;;
42714;SDS011;28351;51.480;5.706;2023-04-12T13:44:40;6.03;;;2.08;;
42714;SDS011;28351;51.480;5.706;2023-04-12T13:47:06;8.85;;;2.72;;
42714;SDS011;28351;51.480;5.706;2023-04-12T13:49:37;1.50;;;1.00;;
42714;SDS011;28351;51.480;5.706;2023-04-12T13:52:21;3.40;;;1.20;;
42714;SDS011;28351;51.480;5.706;2023-04-12T13:58:45;3.30;;;1.10;;
42714;SDS011;28351;51.480;5.706;2023-04-12T14:01:33;1.75;;;0.80;;
42714;SDS011;28351;51.480;5.706;2023-04-12T14:03:59;2.83;;;1.00;;
42714;SDS011;28351;51.480;5.706;2023-04-12T14:06:24;4.45;;;1.00;;
42714;SDS011;28351;51.480;5.706;2023-04-12T14:09:00;1.88;;;1.02;;
42714;SDS011;28351;51.480;5.706;2023-04-12T14:11:26;3.78;;;1.20;;
42714;SDS011;28351;51.480;5.706;2023-04-12T14:13:51;1.60;;;1.13;;
42714;SDS011;28351;51.480;5.706;2023-04-12T14:16:17;6.47;;;1.25;;
42714;SDS011;28351;51.480;5.706;2023-04-12T14:18:46;4.47;;;1.30;;
42714;SDS011;28351;51.480;5.706;2023-04-12T14:21:12;2.33;;;1.33;;
42714;SDS011;28351;51.480;5.706;2023-04-12T14:23:38;4.57;;;1.77;;
42714;SDS011;28351;51.480;5.706;2023-04-12T14:26:05;2.83;;;1.40;;
42714;SDS011;28351;51.480;5.706;2023-04-12T14:28:31;1.70;;;1.25;;
42714;SDS011;28351;51.480;5.706;2023-04-12T14:33:25;1.70;;;1.30;;
42714;SDS011;28351;51.480;5.706;2023-04-12T14:36:09;1.77;;;1.35;;
42714;SDS011;28351;51.480;5.706;2023-04-12T14:41:31;4.45;;;1.58;;
42714;SDS011;28351;51.480;5.706;2023-04-12T14:43:59;3.72;;;1.15;;
42714;SDS011;28351;51.480;5.706;2023-04-12T14:46:25;6.28;;;1.90;;
42714;SDS011;28351;51.480;5.706;2023-04-12T14:52:33;9.68;;;2.17;;
42714;SDS011;28351;51.480;5.706;2023-04-12T14:57:51;4.57;;;1.75;;
42714;SDS011;28351;51.480;5.706;2023-04-12T15:00:35;7.45;;;1.77;;
42714;SDS011;28351;51.480;5.706;2023-04-12T15:03:34;4.28;;;2.17;;
42714;SDS011;28351;51.480;5.706;2023-04-12T15:06:06;3.08;;;1.77;;
42714;SDS011;28351;51.480;5.706;2023-04-12T15:08:41;5.15;;;1.92;;
42714;SDS011;28351;51.480;5.706;2023-04-12T15:11:09;4.40;;;1.60;;
42714;SDS011;28351;51.480;5.706;2023-04-12T15:13:36;3.30;;;1.63;;
42714;SDS011;28351;51.480;5.706;2023-04-12T15:16:08;2.28;;;1.38;;
42714;SDS011;28351;51.480;5.706;2023-04-12T15:18:37;2.20;;;1.38;;
42714;SDS011;28351;51.480;5.706;2023-04-12T15:21:05;4.45;;;1.50;;
42714;SDS011;28351;51.480;5.706;2023-04-12T15:23:39;4.80;;;1.70;;
42714;SDS011;28351;51.480;5.706;2023-04-12T15:26:05;6.78;;;2.03;;
42714;SDS011;28351;51.480;5.706;2023-04-12T15:28:33;4.80;;;2.50;;
42714;SDS011;28351;51.480;5.706;2023-04-12T15:30:59;3.88;;;1.60;;
42714;SDS011;28351;51.480;5.706;2023-04-12T15:33:25;3.92;;;2.33;;
42714;SDS011;28351;51.480;5.706;2023-04-12T15:35:52;7.15;;;2.28;;
42714;SDS011;28351;51.480;5.706;2023-04-12T15:38:20;5.07;;;2.00;;
42714;SDS011;28351;51.480;5.706;2023-04-12T15:40:51;5.13;;;2.55;;
42714;SDS011;28351;51.480;5.706;2023-04-12T15:43:18;4.38;;;2.70;;
42714;SDS011;28351;51.480;5.706;2023-04-12T15:45:44;5.40;;;2.60;;
42714;SDS011;28351;51.480;5.706;2023-04-12T15:48:10;4.82;;;2.42;;
42714;SDS011;28351;51.480;5.706;2023-04-12T15:50:45;4.35;;;2.33;;
42714;SDS011;28351;51.480;5.706;2023-04-12T15:53:13;7.88;;;2.80;;
42714;SDS011;28351;51.480;5.706;2023-04-12T15:55:43;6.45;;;2.00;;